Time,TemperatureF,DewpointF,PressureIn,WindDirection,WindDirectionDegrees,WindSpeedMPH,WindSpeedGustMPH,Humidity,HourlyPrecipIn,Conditions,Clouds,dailyrainin,SoftwareType,DateUTC
2013-05-19 00:00:00,79.7,71.8,29.74,SE,138,8.0,8.0,77,0.00,,,0.00,Wunderground v.1.15,2013-05-19 05:00:00,
2013-05-19 00:01:00,79.7,72.0,29.74,SE,144,6.0,13.0,77,0.00,,,0.00,weatherlink.com 1.10,2013-05-19 05:01:00,
2013-05-19 00:05:00,79.6,71.8,29.74,South,171,7.0,10.0,77,0.00,,,0.00,Wunderground v.1.15,2013-05-19 05:05:00,
2013-05-19 00:15:00,79.6,71.4,29.75,SSE,157,7.0,8.0,76,0.00,,,0.00,Wunderground v.1.15,2013-05-19 05:15:00,
2013-05-19 00:17:00,79.6,71.0,29.74,SSW,198,7.0,12.0,76,0.00,,,0.00,weatherlink.com 1.10,2013-05-19 05:17:00,
2013-05-19 00:25:00,79.7,71.1,29.75,South,177,7.0,11.0,75,0.00,,,0.00,Wunderground v.1.15,2013-05-19 05:25:00,
2013-05-19 00:32:00,79.7,71.0,29.75,South,182,7.0,12.0,75,0.00,,,0.00,weatherlink.com 1.10,2013-05-19 05:32:00,
2013-05-19 00:40:00,79.6,70.6,29.75,South,170,7.0,7.0,74,0.00,,,0.00,Wunderground v.1.15,2013-05-19 05:40:00,
2013-05-19 00:47:00,79.6,70.0,29.75,SSE,148,4.0,11.0,73,0.00,,,0.00,weatherlink.com 1.10,2013-05-19 05:47:00,
2013-05-19 00:50:00,79.6,70.2,29.75,ESE,114,4.0,4.0,73,0.00,,,0.00,Wunderground v.1.15,2013-05-19 05:50:00,
2013-05-19 00:55:00,79.6,70.2,29.76,SE,133,4.0,4.0,73,0.00,,,0.00,Wunderground v.1.15,2013-05-19 05:55:00,
2013-05-19 01:00:00,79.6,70.2,29.76,NNE,24,3.0,3.0,73,0.00,,,0.00,Wunderground v.1.15,2013-05-19 06:00:00,
2013-05-19 01:02:00,79.5,70.0,29.76,NE,50,1.0,6.0,73,0.00,,,0.00,weatherlink.com 1.10,2013-05-19 06:02:00,
2013-05-19 01:10:00,79.2,70.2,29.76,NNE,25,3.0,3.0,74,0.00,,,0.00,Wunderground v.1.15,2013-05-19 06:10:00,
2013-05-19 01:15:00,79.0,70.4,29.77,NNE,25,3.0,3.0,75,0.00,,,0.00,Wunderground v.1.15,2013-05-19 06:15:00,
2013-05-19 01:17:00,78.9,70.0,29.77,NNE,25,0.0,5.0,75,0.00,,,0.00,weatherlink.com 1.10,2013-05-19 06:17:00,
2013-05-19 01:20:00,78.9,70.3,29.77,NNE,33,1.0,1.0,75,0.00,,,0.00,Wunderground v.1.15,2013-05-19 06:20:00,
2013-05-19 01:30:00,78.8,70.2,29.75,South,172,3.0,4.0,75,0.00,,,0.00,Wunderground v.1.15,2013-05-19 06:30:00,
2013-05-19 01:32:00,78.7,70.0,29.75,South,186,5.0,10.0,75,0.00,,,0.00,weatherlink.com 1.10,2013-05-19 06:32:00,
2013-05-19 01:40:00,78.7,69.3,29.74,SSE,153,8.0,13.0,73,0.00,,,0.00,Wunderground v.1.15,2013-05-19 06:40:00,
2013-05-19 01:45:00,78.5,68.7,29.73,South,186,9.0,13.0,72,0.00,,,0.00,Wunderground v.1.15,2013-05-19 06:45:00,
2013-05-19 01:47:00,78.4,69.0,29.73,South,173,6.0,17.0,72,0.00,,,0.00,weatherlink.com 1.10,2013-05-19 06:47:00,
2013-05-19 01:55:00,78.2,68.4,29.73,SSW,200,8.0,9.0,72,0.00,,,0.00,Wunderground v.1.15,2013-05-19 06:55:00,
2013-05-19 02:00:00,78.2,68.0,29.74,SE,139,8.0,8.0,71,0.00,,,0.00,Wunderground v.1.15,2013-05-19 07:00:00,
2013-05-19 02:02:00,78.1,68.0,29.74,SSE,148,4.0,16.0,71,0.00,,,0.00,weatherlink.com 1.10,2013-05-19 07:02:00,
2013-05-19 02:10:00,78.1,67.9,29.73,SSE,163,7.0,7.0,71,0.00,,,0.00,Wunderground v.1.15,2013-05-19 07:10:00,
2013-05-19 02:15:00,78.1,67.9,29.73,SSE,167,7.0,7.0,71,0.00,,,0.00,Wunderground v.1.15,2013-05-19 07:15:00,
2013-05-19 02:17:00,78.0,68.0,29.73,SSE,162,4.0,15.0,71,0.00,,,0.00,weatherlink.com 1.10,2013-05-19 07:17:00,
2013-05-19 02:25:00,77.9,67.7,29.74,South,184,5.0,6.0,71,0.00,,,0.00,Wunderground v.1.15,2013-05-19 07:25:00,
2013-05-19 02:30:00,77.9,67.7,29.74,SSW,196,6.0,6.0,71,0.00,,,0.00,Wunderground v.1.15,2013-05-19 07:30:00,
2013-05-19 02:34:00,77.8,68.0,29.74,SSE,161,5.0,15.0,71,0.00,,,0.00,weatherlink.com 1.10,2013-05-19 07:34:00,
2013-05-19 02:40:00,77.6,67.4,29.74,South,169,6.0,7.0,71,0.00,,,0.00,Wunderground v.1.15,2013-05-19 07:40:00,
2013-05-19 02:45:00,77.5,67.4,29.73,South,182,7.0,15.0,71,0.00,,,0.00,Wunderground v.1.15,2013-05-19 07:45:00,
2013-05-19 02:49:00,77.3,67.0,29.73,SSE,151,3.0,15.0,71,0.00,,,0.00,weatherlink.com 1.10,2013-05-19 07:49:00,
2013-05-19 02:50:00,77.3,67.2,29.72,SSE,148,9.0,9.0,71,0.00,,,0.00,Wunderground v.1.15,2013-05-19 07:50:00,
2013-05-19 03:00:00,77.0,67.3,29.72,South,178,8.0,13.0,72,0.00,,,0.00,Wunderground v.1.15,2013-05-19 08:00:00,
2013-05-19 03:03:00,76.9,67.0,29.72,SSE,165,8.0,14.0,72,0.00,,,0.00,weatherlink.com 1.10,2013-05-19 08:03:00,
2013-05-19 03:10:00,76.7,67.0,29.72,South,180,10.0,10.0,72,0.00,,,0.00,Wunderground v.1.15,2013-05-19 08:10:00,
2013-05-19 03:15:00,76.7,66.6,29.72,South,173,10.0,10.0,71,0.00,,,0.00,Wunderground v.1.15,2013-05-19 08:15:00,
2013-05-19 03:19:00,76.6,67.0,29.72,SSW,193,9.0,19.0,71,0.00,,,0.00,weatherlink.com 1.10,2013-05-19 08:19:00,
2013-05-19 03:25:00,76.6,66.5,29.72,SSW,198,11.0,17.0,71,0.00,,,0.00,Wunderground v.1.15,2013-05-19 08:25:00,
2013-05-19 03:30:00,76.6,66.5,29.72,South,182,12.0,12.0,71,0.00,,,0.00,Wunderground v.1.15,2013-05-19 08:30:00,
2013-05-19 03:34:00,76.5,66.0,29.71,South,188,12.0,17.0,71,0.00,,,0.00,weatherlink.com 1.10,2013-05-19 08:34:00,
2013-05-19 03:40:00,76.3,66.2,29.72,SSE,164,10.0,10.0,71,0.00,,,0.00,Wunderground v.1.15,2013-05-19 08:40:00,
2013-05-19 03:49:00,76.1,66.0,29.72,South,189,9.0,17.0,72,0.00,,,0.00,weatherlink.com 1.10,2013-05-19 08:49:00,
2013-05-19 03:55:00,76.0,66.3,29.72,South,182,10.0,12.0,72,0.00,,,0.00,Wunderground v.1.15,2013-05-19 08:55:00,
2013-05-19 04:04:00,75.7,66.0,29.71,South,184,8.0,18.0,72,0.00,,,0.00,weatherlink.com 1.10,2013-05-19 09:04:00,
2013-05-19 04:10:00,75.6,65.9,29.72,South,182,9.0,9.0,72,0.00,,,0.00,Wunderground v.1.15,2013-05-19 09:10:00,
2013-05-19 04:15:00,75.5,65.8,29.72,South,176,10.0,10.0,72,0.00,,,0.00,Wunderground v.1.15,2013-05-19 09:15:00,
2013-05-19 04:19:00,75.5,66.0,29.72,SSW,206,7.0,20.0,72,0.00,,,0.00,weatherlink.com 1.10,2013-05-19 09:19:00,
2013-05-19 04:25:00,75.4,65.7,29.72,SSE,161,11.0,11.0,72,0.00,,,0.00,Wunderground v.1.15,2013-05-19 09:25:00,
2013-05-19 04:34:00,75.2,66.0,29.72,SSW,196,8.0,20.0,73,0.00,,,0.00,weatherlink.com 1.10,2013-05-19 09:34:00,
2013-05-19 04:40:00,75.0,65.8,29.71,South,176,10.0,14.0,73,0.00,,,0.00,Wunderground v.1.15,2013-05-19 09:40:00,
2013-05-19 04:45:00,74.9,65.7,29.72,SSE,164,10.0,14.0,73,0.00,,,0.00,Wunderground v.1.15,2013-05-19 09:45:00,
2013-05-19 04:49:00,74.9,66.0,29.72,SW,221,11.0,22.0,73,0.00,,,0.00,weatherlink.com 1.10,2013-05-19 09:49:00,
2013-05-19 04:55:00,74.8,65.6,29.72,South,190,12.0,16.0,73,0.00,,,0.00,Wunderground v.1.15,2013-05-19 09:55:00,
2013-05-19 05:00:00,74.7,65.5,29.72,SSW,196,12.0,12.0,73,0.00,,,0.00,Wunderground v.1.15,2013-05-19 10:00:00,
2013-05-19 05:04:00,74.6,66.0,29.72,South,188,9.0,19.0,74,0.00,,,0.00,weatherlink.com 1.10,2013-05-19 10:04:00,
2013-05-19 05:10:00,74.5,65.7,29.72,South,188,11.0,11.0,74,0.00,,,0.00,Wunderground v.1.15,2013-05-19 10:10:00,
2013-05-19 05:19:00,74.3,66.0,29.71,SSW,210,4.0,21.0,74,0.00,,,0.00,weatherlink.com 1.10,2013-05-19 10:19:00,
2013-05-19 05:25:00,74.2,65.4,29.72,South,177,11.0,12.0,74,0.00,,,0.00,Wunderground v.1.15,2013-05-19 10:25:00,
2013-05-19 05:34:00,74.1,65.0,29.71,SSE,161,8.0,23.0,74,0.00,,,0.00,weatherlink.com 1.10,2013-05-19 10:34:00,
2013-05-19 05:40:00,74.0,65.2,29.71,SSW,192,12.0,12.0,74,0.00,,,0.00,Wunderground v.1.15,2013-05-19 10:40:00,
2013-05-19 05:45:00,73.9,65.5,29.72,SSW,194,11.0,12.0,75,0.00,,,0.00,Wunderground v.1.15,2013-05-19 10:45:00,
2013-05-19 05:49:00,73.7,65.0,29.72,SSW,192,11.0,19.0,75,0.00,,,0.00,weatherlink.com 1.10,2013-05-19 10:49:00,
2013-05-19 05:55:00,73.7,65.3,29.71,SSW,194,11.0,11.0,75,0.00,,,0.00,Wunderground v.1.15,2013-05-19 10:55:00,
2013-05-19 06:04:00,73.5,65.0,29.71,SSE,155,12.0,17.0,75,0.00,,,0.00,weatherlink.com 1.10,2013-05-19 11:04:00,
2013-05-19 06:05:00,73.4,65.0,29.71,South,188,11.0,13.0,75,0.00,,,0.00,Wunderground v.1.15,2013-05-19 11:05:00,
2013-05-19 06:10:00,73.3,64.9,29.71,South,187,10.0,10.0,75,0.00,,,0.00,Wunderground v.1.15,2013-05-19 11:10:00,
2013-05-19 06:19:00,73.1,65.0,29.71,South,190,9.0,22.0,76,0.00,,,0.00,weatherlink.com 1.10,2013-05-19 11:19:00,
2013-05-19 06:25:00,72.9,64.9,29.71,South,171,12.0,12.0,76,0.00,,,0.00,Wunderground v.1.15,2013-05-19 11:25:00,
2013-05-19 06:30:00,72.9,64.9,29.71,SSE,167,11.0,11.0,76,0.00,,,0.00,Wunderground v.1.15,2013-05-19 11:30:00,
2013-05-19 06:35:00,72.9,64.9,29.71,South,172,11.0,11.0,76,0.00,,,0.00,Wunderground v.1.15,2013-05-19 11:35:00,
2013-05-19 06:36:00,72.8,65.0,29.71,SSW,195,7.0,17.0,76,0.00,,,0.00,weatherlink.com 1.10,2013-05-19 11:36:00,
2013-05-19 06:40:00,72.8,65.2,29.72,SSW,200,10.0,10.0,77,0.00,,,0.00,Wunderground v.1.15,2013-05-19 11:40:00,
2013-05-19 06:45:00,72.7,65.1,29.72,South,186,9.0,12.0,77,0.00,,,0.00,Wunderground v.1.15,2013-05-19 11:45:00,
2013-05-19 06:51:00,72.6,65.0,29.72,South,180,12.0,17.0,77,0.00,,,0.00,weatherlink.com 1.10,2013-05-19 11:51:00,
2013-05-19 07:00:00,72.6,65.0,29.72,South,190,11.0,11.0,77,0.00,,,0.00,Wunderground v.1.15,2013-05-19 12:00:00,
2013-05-19 07:05:00,72.6,65.0,29.72,SSE,157,12.0,12.0,77,0.00,,,0.00,Wunderground v.1.15,2013-05-19 12:05:00,
2013-05-19 07:06:00,72.6,65.0,29.72,South,173,8.0,22.0,77,0.00,,,0.00,weatherlink.com 1.10,2013-05-19 12:06:00,
2013-05-19 07:15:00,72.6,65.0,29.72,South,171,12.0,17.0,77,0.00,,,0.00,Wunderground v.1.15,2013-05-19 12:15:00,
2013-05-19 07:20:00,72.7,65.1,29.72,South,180,13.0,13.0,77,0.00,,,0.00,Wunderground v.1.15,2013-05-19 12:20:00,
2013-05-19 07:21:00,72.6,65.0,29.72,South,174,14.0,20.0,77,0.00,,,0.00,weatherlink.com 1.10,2013-05-19 12:21:00,
2013-05-19 07:30:00,72.7,65.1,29.72,South,181,12.0,12.0,77,0.00,,,0.00,Wunderground v.1.15,2013-05-19 12:30:00,
2013-05-19 07:36:00,72.7,66.0,29.72,South,169,10.0,21.0,78,0.00,,,0.00,weatherlink.com 1.10,2013-05-19 12:36:00,
2013-05-19 07:45:00,72.8,65.2,29.72,SSE,165,12.0,16.0,77,0.00,,,0.00,Wunderground v.1.15,2013-05-19 12:45:00,
2013-05-19 07:51:00,72.8,66.0,29.73,South,188,18.0,22.0,78,0.00,,,0.00,weatherlink.com 1.10,2013-05-19 12:51:00,
2013-05-19 08:00:00,72.8,65.5,29.73,SSE,167,13.0,13.0,78,0.00,,,0.00,Wunderground v.1.15,2013-05-19 13:00:00,
2013-05-19 08:06:00,72.9,66.0,29.73,SSW,207,11.0,22.0,78,0.00,,,0.00,weatherlink.com 1.10,2013-05-19 13:06:00,
2013-05-19 08:15:00,73.1,65.8,29.73,SSW,196,12.0,16.0,78,0.00,,,0.00,Wunderground v.1.15,2013-05-19 13:15:00,
2013-05-19 08:20:00,73.0,65.7,29.73,South,175,13.0,14.0,78,0.00,,,0.00,Wunderground v.1.15,2013-05-19 13:20:00,
2013-05-19 08:21:00,73.1,66.0,29.73,South,188,23.0,27.0,78,0.00,,,0.00,weatherlink.com 1.10,2013-05-19 13:21:00,
2013-05-19 08:30:00,73.0,66.1,29.73,SSW,196,15.0,15.0,79,0.00,,,0.00,Wunderground v.1.15,2013-05-19 13:30:00,
2013-05-19 08:35:00,73.1,65.8,29.73,SSW,208,14.0,17.0,78,0.00,,,0.00,Wunderground v.1.15,2013-05-19 13:35:00,
2013-05-19 08:36:00,73.1,66.0,29.73,SSW,194,20.0,23.0,78,0.00,,,0.00,weatherlink.com 1.10,2013-05-19 13:36:00,
2013-05-19 08:45:00,73.4,66.1,29.73,SSW,198,13.0,23.0,78,0.00,,,0.00,Wunderground v.1.15,2013-05-19 13:45:00,
2013-05-19 08:50:00,73.4,66.1,29.73,SSW,205,15.0,15.0,78,0.00,,,0.00,Wunderground v.1.15,2013-05-19 13:50:00,
2013-05-19 08:51:00,73.5,66.0,29.73,South,188,17.0,24.0,78,0.00,,,0.00,weatherlink.com 1.10,2013-05-19 13:51:00,
2013-05-19 08:55:00,73.7,66.4,29.73,SSW,192,14.0,21.0,78,0.00,,,0.00,Wunderground v.1.15,2013-05-19 13:55:00,
2013-05-19 09:00:00,73.7,66.4,29.73,South,190,14.0,21.0,78,0.00,,,0.00,Wunderground v.1.15,2013-05-19 14:00:00,
2013-05-19 09:06:00,73.8,67.0,29.73,South,190,13.0,24.0,78,0.00,,,0.00,weatherlink.com 1.10,2013-05-19 14:06:00,
2013-05-19 09:15:00,74.1,66.4,29.73,SSW,208,12.0,17.0,77,0.00,,,0.00,Wunderground v.1.15,2013-05-19 14:15:00,
2013-05-19 09:20:00,74.0,66.7,29.73,SSW,201,12.0,12.0,78,0.00,,,0.00,Wunderground v.1.15,2013-05-19 14:20:00,
2013-05-19 09:21:00,74.0,67.0,29.73,South,190,16.0,22.0,78,0.00,,,0.00,weatherlink.com 1.10,2013-05-19 14:21:00,
2013-05-19 09:30:00,74.4,67.1,29.73,SSW,203,12.0,14.0,78,0.00,,,0.00,Wunderground v.1.15,2013-05-19 14:30:00,
2013-05-19 09:35:00,74.8,66.7,29.73,SSW,209,13.0,16.0,76,0.00,,,0.00,Wunderground v.1.15,2013-05-19 14:35:00,
2013-05-19 09:36:00,74.8,67.0,29.73,SSW,206,14.0,21.0,76,0.00,,,0.00,weatherlink.com 1.10,2013-05-19 14:36:00,
2013-05-19 09:45:00,74.9,66.8,29.73,SSE,158,15.0,18.0,76,0.00,,,0.00,Wunderground v.1.15,2013-05-19 14:45:00,
2013-05-19 09:51:00,75.1,67.0,29.73,SSW,195,17.0,26.0,76,0.00,,,0.00,weatherlink.com 1.10,2013-05-19 14:51:00,
2013-05-19 10:00:00,75.6,67.1,29.73,SSW,210,14.0,14.0,75,0.00,,,0.00,Wunderground v.1.15,2013-05-19 15:00:00,
2013-05-19 10:05:00,75.9,67.4,29.73,South,184,13.0,14.0,75,0.00,,,0.00,Wunderground v.1.15,2013-05-19 15:05:00,
2013-05-19 10:07:00,76.2,68.0,29.73,South,176,16.0,22.0,75,0.00,,,0.00,weatherlink.com 1.10,2013-05-19 15:07:00,
2013-05-19 10:15:00,76.2,67.3,29.73,SW,220,14.0,15.0,74,0.00,,,0.00,Wunderground v.1.15,2013-05-19 15:15:00,
2013-05-19 10:20:00,76.6,67.3,29.73,SSW,198,14.0,21.0,73,0.00,,,0.00,Wunderground v.1.15,2013-05-19 15:20:00,
2013-05-19 10:22:00,76.7,67.0,29.73,South,173,21.0,28.0,73,0.00,,,0.00,weatherlink.com 1.10,2013-05-19 15:22:00,
2013-05-19 10:30:00,76.9,67.6,29.73,SSE,151,14.0,14.0,73,0.00,,,0.00,Wunderground v.1.15,2013-05-19 15:30:00,
2013-05-19 10:35:00,77.5,67.8,29.72,SSE,163,13.0,15.0,72,0.00,,,0.00,Wunderground v.1.15,2013-05-19 15:35:00,
2013-05-19 10:37:00,77.7,68.0,29.72,South,173,21.0,21.0,72,0.00,,,0.00,weatherlink.com 1.10,2013-05-19 15:37:00,
2013-05-19 10:45:00,77.9,67.7,29.72,South,186,14.0,14.0,71,0.00,,,0.00,Wunderground v.1.15,2013-05-19 15:45:00,
2013-05-19 10:52:00,77.9,68.0,29.72,South,188,23.0,28.0,71,0.00,,,0.00,weatherlink.com 1.10,2013-05-19 15:52:00,
2013-05-19 11:00:00,78.3,68.1,29.72,SSW,206,16.0,16.0,71,0.00,,,0.00,Wunderground v.1.15,2013-05-19 16:00:00,
2013-05-19 11:05:00,78.8,68.2,29.71,SSE,167,14.0,16.0,70,0.00,,,0.00,Wunderground v.1.15,2013-05-19 16:05:00,
2013-05-19 11:07:00,78.9,68.0,29.71,SW,218,22.0,28.0,69,0.00,,,0.00,weatherlink.com 1.10,2013-05-19 16:07:00,
2013-05-19 11:10:00,78.7,67.7,29.71,South,175,15.0,21.0,69,0.00,,,0.00,Wunderground v.1.15,2013-05-19 16:10:00,
2013-05-19 11:15:00,78.7,67.7,29.71,SSE,165,18.0,21.0,69,0.00,,,0.00,Wunderground v.1.15,2013-05-19 16:15:00,
2013-05-19 11:22:00,79.3,68.0,29.71,SSW,192,20.0,27.0,69,0.00,,,0.00,weatherlink.com 1.10,2013-05-19 16:22:00,
2013-05-19 11:30:00,79.8,68.3,29.71,South,183,15.0,20.0,68,0.00,,,0.00,Wunderground v.1.15,2013-05-19 16:30:00,
2013-05-19 11:35:00,79.7,68.2,29.71,South,172,15.0,20.0,68,0.00,,,0.00,Wunderground v.1.15,2013-05-19 16:35:00,
2013-05-19 11:37:00,79.7,68.0,29.70,SSE,167,19.0,27.0,68,0.00,,,0.00,weatherlink.com 1.10,2013-05-19 16:37:00,
2013-05-19 11:45:00,80.0,68.9,29.70,South,179,14.0,21.0,69,0.00,,,0.00,Wunderground v.1.15,2013-05-19 16:45:00,
2013-05-19 11:50:00,79.9,68.4,29.70,South,184,14.0,15.0,68,0.00,,,0.00,Wunderground v.1.15,2013-05-19 16:50:00,
2013-05-19 11:52:00,79.9,69.0,29.70,South,190,21.0,25.0,69,0.00,,,0.00,weatherlink.com 1.10,2013-05-19 16:52:00,
2013-05-19 12:00:00,80.5,68.1,29.70,SSE,159,15.0,16.0,66,0.00,,,0.00,Wunderground v.1.15,2013-05-19 17:00:00,
2013-05-19 12:05:00,80.4,68.4,29.70,SSE,164,16.0,16.0,67,0.00,,,0.00,Wunderground v.1.15,2013-05-19 17:05:00,
2013-05-19 12:09:00,80.6,69.0,29.70,South,175,21.0,27.0,67,0.00,,,0.00,weatherlink.com 1.10,2013-05-19 17:09:00,
2013-05-19 12:15:00,80.8,68.8,29.70,South,186,16.0,18.0,67,0.00,,,0.00,Wunderground v.1.15,2013-05-19 17:15:00,
2013-05-19 12:24:00,81.6,69.0,29.69,South,175,22.0,24.0,66,0.00,,,0.00,weatherlink.com 1.10,2013-05-19 17:24:00,
2013-05-19 12:30:00,82.0,69.1,29.69,SSE,157,13.0,13.0,65,0.00,,,0.00,Wunderground v.1.15,2013-05-19 17:30:00,
2013-05-19 12:35:00,81.5,69.0,29.69,South,172,14.0,23.0,66,0.00,,,0.00,Wunderground v.1.15,2013-05-19 17:35:00,
2013-05-19 12:38:00,81.2,69.0,29.69,SSW,199,16.0,25.0,66,0.00,,,0.00,weatherlink.com 1.10,2013-05-19 17:38:00,
2013-05-19 12:40:00,81.1,68.7,29.69,South,189,16.0,16.0,66,0.00,,,0.00,Wunderground v.1.15,2013-05-19 17:40:00,
2013-05-19 12:50:00,81.4,68.9,29.69,South,188,15.0,17.0,66,0.00,,,0.00,Wunderground v.1.15,2013-05-19 17:50:00,
2013-05-19 12:54:00,81.0,69.0,29.69,SSW,207,14.0,23.0,66,0.00,,,0.00,weatherlink.com 1.10,2013-05-19 17:54:00,
2013-05-19 13:00:00,81.8,69.3,29.68,SSW,192,14.0,14.0,66,0.00,,,0.00,Wunderground v.1.15,2013-05-19 18:00:00,
2013-05-19 13:09:00,82.8,69.0,29.68,South,171,11.0,31.0,64,0.00,,,0.00,weatherlink.com 1.10,2013-05-19 18:09:00,
2013-05-19 13:10:00,82.9,69.5,29.68,SSW,193,15.0,17.0,64,0.00,,,0.00,Wunderground v.1.15,2013-05-19 18:10:00,
2013-05-19 13:15:00,82.9,69.0,29.68,South,190,16.0,23.0,63,0.00,,,0.00,Wunderground v.1.15,2013-05-19 18:15:00,
2013-05-19 13:24:00,83.3,70.0,29.68,South,190,14.0,26.0,64,0.00,,,0.00,weatherlink.com 1.10,2013-05-19 18:24:00,
2013-05-19 13:30:00,83.3,69.4,29.68,SSW,193,12.0,12.0,63,0.00,,,0.00,Wunderground v.1.15,2013-05-19 18:30:00,
2013-05-19 13:39:00,83.5,70.0,29.68,SSW,209,11.0,23.0,63,0.00,,,0.00,weatherlink.com 1.10,2013-05-19 18:39:00,
2013-05-19 13:45:00,83.6,69.2,29.67,South,171,15.0,22.0,62,0.00,,,0.00,Wunderground v.1.15,2013-05-19 18:45:00,
2013-05-19 13:50:00,83.7,69.3,29.67,SW,225,17.0,18.0,62,0.00,,,0.00,Wunderground v.1.15,2013-05-19 18:50:00,
2013-05-19 13:54:00,84.0,70.0,29.67,South,176,17.0,26.0,62,0.00,,,0.00,weatherlink.com 1.10,2013-05-19 18:54:00,
2013-05-19 14:00:00,83.4,69.5,29.67,South,187,17.0,22.0,63,0.00,,,0.00,Wunderground v.1.15,2013-05-19 19:00:00,
2013-05-19 14:05:00,82.9,69.5,29.66,SSE,167,18.0,22.0,64,0.00,,,0.00,Wunderground v.1.15,2013-05-19 19:05:00,
2013-05-19 14:09:00,83.7,70.0,29.66,South,169,22.0,26.0,63,0.00,,,0.00,weatherlink.com 1.10,2013-05-19 19:09:00,
2013-05-19 14:15:00,84.1,70.1,29.66,SSE,161,17.0,18.0,63,0.00,,,0.00,Wunderground v.1.15,2013-05-19 19:15:00,
2013-05-19 14:24:00,84.1,70.0,29.66,SSW,200,16.0,37.0,62,0.00,,,0.00,weatherlink.com 1.10,2013-05-19 19:24:00,
2013-05-19 14:30:00,84.2,69.8,29.66,SSE,168,21.0,27.0,62,0.00,,,0.00,Wunderground v.1.15,2013-05-19 19:30:00,
2013-05-19 14:35:00,84.6,70.6,29.65,SW,227,19.0,27.0,63,0.00,,,0.00,Wunderground v.1.15,2013-05-19 19:35:00,
2013-05-19 14:39:00,84.4,70.0,29.65,SSE,168,18.0,31.0,63,0.00,,,0.00,weatherlink.com 1.10,2013-05-19 19:39:00,
2013-05-19 14:45:00,84.4,70.0,29.65,South,188,18.0,18.0,62,0.00,,,0.00,Wunderground v.1.15,2013-05-19 19:45:00,
2013-05-19 14:54:00,83.6,70.0,29.65,South,183,23.0,32.0,63,0.00,,,0.00,weatherlink.com 1.10,2013-05-19 19:54:00,
2013-05-19 15:00:00,83.7,70.2,29.65,South,175,17.0,17.0,64,0.00,,,0.00,Wunderground v.1.15,2013-05-19 20:00:00,
2013-05-19 15:05:00,83.5,70.0,29.65,South,185,18.0,18.0,64,0.00,,,0.00,Wunderground v.1.15,2013-05-19 20:05:00,
2013-05-19 15:09:00,83.7,70.0,29.65,SSW,192,19.0,31.0,64,0.00,,,0.00,weatherlink.com 1.10,2013-05-19 20:09:00,
2013-05-19 15:15:00,84.6,70.6,29.65,South,170,16.0,19.0,63,0.00,,,0.00,Wunderground v.1.15,2013-05-19 20:15:00,
2013-05-19 15:20:00,84.9,70.4,29.65,South,173,17.0,22.0,62,0.00,,,0.00,Wunderground v.1.15,2013-05-19 20:20:00,
2013-05-19 15:24:00,85.3,71.0,29.65,SSE,164,23.0,30.0,62,0.00,,,0.00,weatherlink.com 1.10,2013-05-19 20:24:00,
2013-05-19 15:30:00,85.4,70.4,29.65,South,185,17.0,17.0,61,0.00,,,0.00,Wunderground v.1.15,2013-05-19 20:30:00,
2013-05-19 15:39:00,85.3,71.0,29.65,SW,219,11.0,31.0,62,0.00,,,0.00,weatherlink.com 1.10,2013-05-19 20:39:00,
2013-05-19 15:45:00,84.9,70.9,29.65,SSW,196,17.0,17.0,63,0.00,,,0.00,Wunderground v.1.15,2013-05-19 20:45:00,
2013-05-19 15:50:00,84.7,70.7,29.64,South,184,17.0,18.0,63,0.00,,,0.00,Wunderground v.1.15,2013-05-19 20:50:00,
2013-05-19 15:54:00,84.7,71.0,29.64,SSW,195,11.0,23.0,63,0.00,,,0.00,weatherlink.com 1.10,2013-05-19 20:54:00,
2013-05-19 16:00:00,84.8,70.8,29.64,South,188,15.0,23.0,63,0.00,,,0.00,Wunderground v.1.15,2013-05-19 21:00:00,
2013-05-19 16:05:00,85.1,71.1,29.63,SSW,196,16.0,23.0,63,0.00,,,0.00,Wunderground v.1.15,2013-05-19 21:05:00,
2013-05-19 16:09:00,85.0,71.0,29.63,South,189,18.0,26.0,63,0.00,,,0.00,weatherlink.com 1.10,2013-05-19 21:09:00,
2013-05-19 16:15:00,85.5,71.0,29.63,SSW,200,16.0,21.0,62,0.00,,,0.00,Wunderground v.1.15,2013-05-19 21:15:00,
2013-05-19 16:20:00,85.1,70.6,29.62,SSW,199,17.0,17.0,62,0.00,,,0.00,Wunderground v.1.15,2013-05-19 21:20:00,
2013-05-19 16:24:00,85.3,71.0,29.62,South,170,16.0,29.0,62,0.00,,,0.00,weatherlink.com 1.10,2013-05-19 21:24:00,
2013-05-19 16:30:00,85.1,70.6,29.61,SSE,156,16.0,19.0,62,0.00,,,0.00,Wunderground v.1.15,2013-05-19 21:30:00,
2013-05-19 16:35:00,85.6,71.1,29.61,SSE,159,18.0,19.0,62,0.00,,,0.00,Wunderground v.1.15,2013-05-19 21:35:00,
2013-05-19 16:41:00,85.9,71.0,29.60,South,180,12.0,25.0,61,0.00,,,0.00,weatherlink.com 1.10,2013-05-19 21:41:00,
2013-05-19 16:45:00,85.9,70.9,29.60,SSE,161,15.0,16.0,61,0.00,,,0.00,Wunderground v.1.15,2013-05-19 21:45:00,
2013-05-19 16:50:00,85.9,70.9,29.60,SW,215,16.0,16.0,61,0.00,,,0.00,Wunderground v.1.15,2013-05-19 21:50:00,
2013-05-19 16:55:00,85.6,70.6,29.59,South,180,19.0,21.0,61,0.00,,,0.00,Wunderground v.1.15,2013-05-19 21:55:00,
2013-05-19 16:56:00,85.7,71.0,29.59,SSE,157,12.0,33.0,62,0.00,,,0.00,weatherlink.com 1.10,2013-05-19 21:56:00,
2013-05-19 17:00:00,85.8,71.3,29.58,South,186,19.0,19.0,62,0.00,,,0.00,Wunderground v.1.15,2013-05-19 22:00:00,
2013-05-19 17:10:00,85.5,71.0,29.58,South,190,20.0,28.0,62,0.00,,,0.00,Wunderground v.1.15,2013-05-19 22:10:00,
2013-05-19 17:12:00,85.5,71.0,29.58,SSW,193,16.0,36.0,62,0.00,,,0.00,weatherlink.com 1.10,2013-05-19 22:12:00,
2013-05-19 17:20:00,85.5,71.0,29.57,SSW,207,21.0,23.0,62,0.00,,,0.00,Wunderground v.1.15,2013-05-19 22:20:00,
2013-05-19 17:25:00,85.3,70.8,29.57,South,179,22.0,23.0,62,0.00,,,0.00,Wunderground v.1.15,2013-05-19 22:25:00,
2013-05-19 17:26:00,85.4,71.0,29.57,SSE,165,22.0,33.0,62,0.00,,,0.00,weatherlink.com 1.10,2013-05-19 22:26:00,
2013-05-19 17:35:00,85.5,71.0,29.57,SSE,155,19.0,20.0,62,0.00,,,0.00,Wunderground v.1.15,2013-05-19 22:35:00,
2013-05-19 17:40:00,85.2,70.7,29.57,South,185,20.0,20.0,62,0.00,,,0.00,Wunderground v.1.15,2013-05-19 22:40:00,
2013-05-19 17:41:00,85.3,71.0,29.57,SSW,206,13.0,34.0,62,0.00,,,0.00,weatherlink.com 1.10,2013-05-19 22:41:00,
2013-05-19 17:50:00,85.7,71.2,29.58,South,174,18.0,21.0,62,0.00,,,0.00,Wunderground v.1.15,2013-05-19 22:50:00,
2013-05-19 17:55:00,85.9,71.4,29.58,SSE,157,17.0,21.0,62,0.00,,,0.00,Wunderground v.1.15,2013-05-19 22:55:00,
2013-05-19 17:56:00,86.0,71.0,29.58,South,187,16.0,28.0,61,0.00,,,0.00,weatherlink.com 1.10,2013-05-19 22:56:00,
2013-05-19 18:00:00,86.1,71.1,29.59,South,178,18.0,25.0,61,0.00,,,0.00,Wunderground v.1.15,2013-05-19 23:00:00,
2013-05-19 18:05:00,86.0,71.0,29.58,SSW,211,20.0,25.0,61,0.00,,,0.00,Wunderground v.1.15,2013-05-19 23:05:00,
2013-05-19 18:10:00,85.9,71.4,29.58,SSE,151,19.0,24.0,62,0.00,,,0.00,Wunderground v.1.15,2013-05-19 23:10:00,
2013-05-19 18:11:00,85.9,71.0,29.58,SSW,192,10.0,31.0,62,0.00,,,0.00,weatherlink.com 1.10,2013-05-19 23:11:00,
2013-05-19 18:15:00,85.9,71.4,29.59,SSE,168,18.0,24.0,62,0.00,,,0.00,Wunderground v.1.15,2013-05-19 23:15:00,
2013-05-19 18:20:00,86.1,71.6,29.59,South,185,15.0,15.0,62,0.00,,,0.00,Wunderground v.1.15,2013-05-19 23:20:00,
2013-05-19 18:25:00,86.1,71.6,29.58,SSW,205,16.0,16.0,62,0.00,,,0.00,Wunderground v.1.15,2013-05-19 23:25:00,
2013-05-19 18:26:00,86.1,72.0,29.59,SSW,198,21.0,28.0,62,0.00,,,0.00,weatherlink.com 1.10,2013-05-19 23:26:00,
2013-05-19 18:35:00,86.0,71.0,29.58,South,177,15.0,21.0,61,0.00,,,0.00,Wunderground v.1.15,2013-05-19 23:35:00,
2013-05-19 18:40:00,85.8,71.3,29.58,South,185,16.0,16.0,62,0.00,,,0.00,Wunderground v.1.15,2013-05-19 23:40:00,
2013-05-19 18:41:00,85.8,71.0,29.58,SSE,167,13.0,31.0,62,0.00,,,0.00,weatherlink.com 1.10,2013-05-19 23:41:00,
2013-05-19 18:50:00,85.4,70.9,29.59,SSE,166,18.0,18.0,62,0.00,,,0.00,Wunderground v.1.15,2013-05-19 23:50:00,
2013-05-19 18:55:00,85.2,70.7,29.59,South,182,20.0,29.0,62,0.00,,,0.00,Wunderground v.1.15,2013-05-19 23:55:00,
2013-05-19 18:56:00,85.2,71.0,29.59,South,185,27.0,32.0,62,0.00,,,0.00,weatherlink.com 1.10,2013-05-19 23:56:00,
2013-05-19 19:05:00,85.2,71.2,29.59,South,171,19.0,21.0,63,0.00,,,0.00,Wunderground v.1.15,2013-05-20 00:05:00,
2013-05-19 19:10:00,85.0,71.0,29.59,SSE,162,17.0,17.0,63,0.00,,,0.00,Wunderground v.1.15,2013-05-20 00:10:00,
2013-05-19 19:11:00,85.1,71.0,29.59,South,172,17.0,28.0,63,0.00,,,0.00,weatherlink.com 1.10,2013-05-20 00:11:00,
2013-05-19 19:20:00,84.9,70.9,29.59,SW,218,18.0,18.0,63,0.00,,,0.00,Wunderground v.1.15,2013-05-20 00:20:00,
2013-05-19 19:25:00,84.8,70.8,29.60,South,190,17.0,18.0,63,0.00,,,0.00,Wunderground v.1.15,2013-05-20 00:25:00,
2013-05-19 19:26:00,84.8,71.0,29.60,South,186,24.0,33.0,63,0.00,,,0.00,weatherlink.com 1.10,2013-05-20 00:26:00,
2013-05-19 19:35:00,84.6,70.6,29.60,SSE,168,16.0,22.0,63,0.00,,,0.00,Wunderground v.1.15,2013-05-20 00:35:00,
2013-05-19 19:40:00,84.5,70.5,29.60,SSE,159,15.0,15.0,63,0.00,,,0.00,Wunderground v.1.15,2013-05-20 00:40:00,
2013-05-19 19:42:00,84.4,71.0,29.61,SSW,194,15.0,26.0,64,0.00,,,0.00,weatherlink.com 1.10,2013-05-20 00:42:00,
2013-05-19 19:50:00,84.2,70.7,29.60,SSE,164,14.0,15.0,64,0.00,,,0.00,Wunderground v.1.15,2013-05-20 00:50:00,
2013-05-19 19:55:00,84.1,70.6,29.61,SSE,167,14.0,19.0,64,0.00,,,0.00,Wunderground v.1.15,2013-05-20 00:55:00,
2013-05-19 19:57:00,84.1,71.0,29.61,SSW,196,11.0,25.0,64,0.00,,,0.00,weatherlink.com 1.10,2013-05-20 00:57:00,
2013-05-19 20:05:00,83.8,70.3,29.61,SSE,168,13.0,19.0,64,0.00,,,0.00,Wunderground v.1.15,2013-05-20 01:05:00,
2013-05-19 20:12:00,83.8,70.0,29.61,SW,221,12.0,26.0,64,0.00,,,0.00,weatherlink.com 1.10,2013-05-20 01:12:00,
2013-05-19 20:15:00,83.7,70.2,29.61,South,178,15.0,19.0,64,0.00,,,0.00,Wunderground v.1.15,2013-05-20 01:15:00,
2013-05-19 20:25:00,83.5,70.0,29.61,South,177,13.0,15.0,64,0.00,,,0.00,Wunderground v.1.15,2013-05-20 01:25:00,
2013-05-19 20:27:00,83.4,70.0,29.61,South,189,18.0,22.0,64,0.00,,,0.00,weatherlink.com 1.10,2013-05-20 01:27:00,
2013-05-19 20:35:00,83.4,69.9,29.61,South,191,13.0,13.0,64,0.00,,,0.00,Wunderground v.1.15,2013-05-20 01:35:00,
2013-05-19 20:40:00,83.4,69.9,29.62,SSE,159,14.0,14.0,64,0.00,,,0.00,Wunderground v.1.15,2013-05-20 01:40:00,
2013-05-19 20:42:00,83.4,70.0,29.62,South,190,11.0,25.0,64,0.00,,,0.00,weatherlink.com 1.10,2013-05-20 01:42:00,
2013-05-19 20:45:00,83.4,69.9,29.62,South,178,15.0,15.0,64,0.00,,,0.00,Wunderground v.1.15,2013-05-20 01:45:00,
2013-05-19 20:50:00,83.3,69.8,29.62,SSW,192,15.0,15.0,64,0.00,,,0.00,Wunderground v.1.15,2013-05-20 01:50:00,
2013-05-19 20:55:00,83.2,69.8,29.62,SSE,152,14.0,15.0,64,0.00,,,0.00,Wunderground v.1.15,2013-05-20 01:55:00,
2013-05-19 20:57:00,83.2,70.0,29.62,South,173,19.0,22.0,64,0.00,,,0.00,weatherlink.com 1.10,2013-05-20 01:57:00,
2013-05-19 21:05:00,83.1,69.7,29.63,South,189,13.0,17.0,64,0.00,,,0.00,Wunderground v.1.15,2013-05-20 02:05:00,
2013-05-19 21:10:00,83.1,69.7,29.63,South,185,13.0,13.0,64,0.00,,,0.00,Wunderground v.1.15,2013-05-20 02:10:00,
2013-05-19 21:12:00,83.1,70.0,29.63,South,178,25.0,28.0,64,0.00,,,0.00,weatherlink.com 1.10,2013-05-20 02:12:00,
2013-05-19 21:15:00,83.2,69.8,29.63,SSE,167,14.0,19.0,64,0.00,,,0.00,Wunderground v.1.15,2013-05-20 02:15:00,
2013-05-19 21:20:00,83.2,69.8,29.63,South,171,15.0,15.0,64,0.00,,,0.00,Wunderground v.1.15,2013-05-20 02:20:00,
2013-05-19 21:25:00,83.3,69.8,29.63,South,171,15.0,15.0,64,0.00,,,0.00,Wunderground v.1.15,2013-05-20 02:25:00,
2013-05-19 21:27:00,83.2,70.0,29.63,South,190,20.0,24.0,64,0.00,,,0.00,weatherlink.com 1.10,2013-05-20 02:27:00,
2013-05-19 21:35:00,83.1,69.7,29.64,South,179,13.0,14.0,64,0.00,,,0.00,Wunderground v.1.15,2013-05-20 02:35:00,
2013-05-19 21:40:00,83.1,69.7,29.64,SSE,161,13.0,15.0,64,0.00,,,0.00,Wunderground v.1.15,2013-05-20 02:40:00,
2013-05-19 21:42:00,83.1,70.0,29.64,SSE,153,17.0,26.0,64,0.00,,,0.00,weatherlink.com 1.10,2013-05-20 02:42:00,
2013-05-19 21:50:00,83.1,69.7,29.65,South,184,16.0,19.0,64,0.00,,,0.00,Wunderground v.1.15,2013-05-20 02:50:00,
2013-05-19 21:55:00,83.1,69.7,29.64,SSW,203,15.0,19.0,64,0.00,,,0.00,Wunderground v.1.15,2013-05-20 02:55:00,
2013-05-19 21:59:00,83.0,70.0,29.64,SSE,168,13.0,29.0,64,0.00,,,0.00,weatherlink.com 1.10,2013-05-20 02:59:00,
2013-05-19 22:05:00,82.9,69.5,29.65,South,182,12.0,18.0,64,0.00,,,0.00,Wunderground v.1.15,2013-05-20 03:05:00,
2013-05-19 22:13:00,82.8,69.0,29.65,SSW,193,14.0,24.0,64,0.00,,,0.00,weatherlink.com 1.10,2013-05-20 03:13:00,
2013-05-19 22:20:00,82.8,69.4,29.66,South,186,14.0,14.0,64,0.00,,,0.00,Wunderground v.1.15,2013-05-20 03:20:00,
2013-05-19 22:25:00,82.7,69.3,29.66,South,182,14.0,14.0,64,0.00,,,0.00,Wunderground v.1.15,2013-05-20 03:25:00,
2013-05-19 22:28:00,82.7,69.0,29.66,SSW,202,10.0,28.0,64,0.00,,,0.00,weatherlink.com 1.10,2013-05-20 03:28:00,
2013-05-19 22:30:00,82.7,69.3,29.66,South,174,14.0,15.0,64,0.00,,,0.00,Wunderground v.1.15,2013-05-20 03:30:00,
2013-05-19 22:35:00,82.6,69.2,29.66,SSW,198,14.0,15.0,64,0.00,,,0.00,Wunderground v.1.15,2013-05-20 03:35:00,
2013-05-19 22:44:00,82.4,69.0,29.66,SSW,210,18.0,26.0,65,0.00,,,0.00,weatherlink.com 1.10,2013-05-20 03:44:00,
2013-05-19 22:50:00,82.3,69.4,29.66,South,186,15.0,15.0,65,0.00,,,0.00,Wunderground v.1.15,2013-05-20 03:50:00,
2013-05-19 22:55:00,82.3,69.4,29.67,South,191,15.0,17.0,65,0.00,,,0.00,Wunderground v.1.15,2013-05-20 03:55:00,
2013-05-19 22:59:00,82.1,70.0,29.66,SSW,195,11.0,22.0,66,0.00,,,0.00,weatherlink.com 1.10,2013-05-20 03:59:00,
2013-05-19 23:05:00,82.0,69.5,29.67,SSW,204,14.0,15.0,66,0.00,,,0.00,Wunderground v.1.15,2013-05-20 04:05:00,
2013-05-19 23:10:00,81.9,69.4,29.67,South,186,16.0,21.0,66,0.00,,,0.00,Wunderground v.1.15,2013-05-20 04:10:00,
2013-05-19 23:14:00,81.8,69.0,29.67,South,173,15.0,28.0,66,0.00,,,0.00,weatherlink.com 1.10,2013-05-20 04:14:00,
2013-05-19 23:20:00,81.6,69.1,29.66,South,171,15.0,18.0,66,0.00,,,0.00,Wunderground v.1.15,2013-05-20 04:20:00,
2013-05-19 23:25:00,81.5,69.5,29.67,South,172,15.0,18.0,67,0.00,,,0.00,Wunderground v.1.15,2013-05-20 04:25:00,
2013-05-19 23:28:00,81.5,70.0,29.67,SSW,192,26.0,27.0,67,0.00,,,0.00,weatherlink.com 1.10,2013-05-20 04:28:00,
2013-05-19 23:35:00,81.4,69.4,29.66,SSE,162,16.0,19.0,67,0.00,,,0.00,Wunderground v.1.15,2013-05-20 04:35:00,
2013-05-19 23:40:00,81.2,69.2,29.66,South,190,16.0,16.0,67,0.00,,,0.00,Wunderground v.1.15,2013-05-20 04:40:00,
2013-05-19 23:44:00,81.2,69.0,29.67,SSW,202,19.0,30.0,67,0.00,,,0.00,weatherlink.com 1.10,2013-05-20 04:44:00,
2013-05-19 23:45:00,81.2,69.2,29.67,South,180,16.0,16.0,67,0.00,,,0.00,Wunderground v.1.15,2013-05-20 04:45:00,
2013-05-19 23:55:00,81.0,69.0,29.67,SSE,167,15.0,16.0,67,0.00,,,0.00,Wunderground v.1.15,2013-05-20 04:55:00,
2013-05-19 23:59:00,80.9,69.0,29.67,SSW,201,20.0,26.0,67,0.00,,,0.00,weatherlink.com 1.10,2013-05-20 04:59:00,